Time;durP1;ratioP1;P1;durP2;ratioP2;P2;SDS_P1;SDS_P2;PMS_P1;PMS_P2;Temp;Humidity;BMP_temperature;BMP_pressure;BME280_temperature;BME280_humidity;BME280_pressure;Samples;Min_cycle;Max_cycle;Signal;HPM_P1;HPM_P2
2021/06/05 00:02:11;;;;;;;;;;;;;;;;;;5042338;28;19925;-72
2021/06/05 00:04:37;;;;;;;;;;;;;;;;;;5050109;28;19929;-71
2021/06/05 00:07:04;;;;;;;;;;;;;;;;;;5046875;28;19936;-72
2021/06/05 00:09:30;;;;;;;;;;;;;;;;;;5051793;28;19931;-71
2021/06/05 00:11:57;;;;;;;;;;;;;;;;;;5036734;28;20274;-72
2021/06/05 00:14:23;;;;;;;;;;;;;;;;;;5042265;28;19933;-72
2021/06/05 00:16:50;;;;;;;;;;;;;;;;;;5046568;28;19983;-71
2021/06/05 00:19:16;;;;;;;;;;;;;;;;;;5048576;28;19925;-72
2021/06/05 00:21:43;;;;;;;;;;;;;;;;;;5051069;28;19925;-72
2021/06/05 00:24:09;;;;;;;;;;;;;;;;;;5050004;28;19932;-71
2021/06/05 00:26:35;;;;;;;;;;;;;;;;;;5038697;28;19925;-72
2021/06/05 00:29:02;;;;;;;;;;;;;;;;;;5048797;28;19932;-70
2021/06/05 00:31:28;;;;;;;;;;;;;;;;;;5047262;28;19926;-72
2021/06/05 00:33:55;;;;;;;;;;;;;;;;;;5048719;28;20050;-70
2021/06/05 00:36:21;;;;;;;;;;;;;;;;;;5046869;28;19931;-72
2021/06/05 00:38:48;;;;;;;;;;;;;;;;;;5049375;28;19928;-72
2021/06/05 00:41:16;;;;;;;;;;;;;;;;;;5041773;28;19925;-72
2021/06/05 00:43:42;;;;;;;;;;;;;;;;;;5053373;28;19925;-72
2021/06/05 00:46:09;;;;;;;;;;;;;;;;;;5052021;28;19924;-72
2021/06/05 00:48:35;;;;;;;;;;;;;;;;;;5048834;28;19925;-72
2021/06/05 00:51:02;;;;;;;;;;;;;;;;;;5045175;28;19978;-72
2021/06/05 00:53:28;;;;;;;;;;;;;;;;;;5048546;28;19994;-72
2021/06/05 00:55:55;;;;;;;;;;;;;;;;;;5036673;28;20349;-72
2021/06/05 00:58:21;;;;;;;;;;;;;;;;;;5051181;28;19925;-72
2021/06/05 01:00:47;;;;;;;;;;;;;;;;;;5044902;28;19931;-72
2021/06/05 01:03:14;;;;;;;;;;;;;;;;;;5048092;28;19931;-72
2021/06/05 01:05:40;;;;;;;;;;;;;;;;;;5046881;28;19935;-72
2021/06/05 01:08:07;;;;;;;;;;;;;;;;;;5041502;28;19955;-72
2021/06/05 01:10:33;;;;;;;;;;;;;;;;;;5048168;28;19925;-72
2021/06/05 01:13:00;;;;;;;;;;;;;;;;;;5044626;28;20399;-72
2021/06/05 01:15:26;;;;;;;;;;;;;;;;;;5043264;28;19929;-72
2021/06/05 01:17:53;;;;;;;;;;;;;;;;;;5047285;28;19925;-72
2021/06/05 01:20:19;;;;;;;;;;;;;;;;;;5044855;28;19925;-72
2021/06/05 01:22:46;;;;;;;;;;;;;;;;;;5043102;28;19924;-72
2021/06/05 01:25:12;;;;;;;;;;;;;;;;;;5050530;28;19971;-70
2021/06/05 01:27:39;;;;;;;;;;;;;;;;;;5053676;28;19925;-71
2021/06/05 01:30:05;;;;;;;;;;;;;;;;;;5044129;28;19933;-72
2021/06/05 01:32:32;;;;;;;;;;;;;;;;;;5051487;28;20558;-71
2021/06/05 01:34:58;;;;;;;;;;;;;;;;;;5052545;28;19933;-72
2021/06/05 01:37:25;;;;;;;;;;;;;;;;;;5051824;28;19995;-70
2021/06/05 01:39:51;;;;;;;;;;;;;;;;;;5045184;28;19925;-71
2021/06/05 01:42:18;;;;;;;;;;;;;;;;;;5044249;28;20023;-70
2021/06/05 01:44:44;;;;;;;;;;;;;;;;;;5042011;28;19925;-75
2021/06/05 01:47:11;;;;;;;;;;;;;;;;;;5043117;28;20015;-71
2021/06/05 01:49:37;;;;;;;;;;;;;;;;;;5045766;28;19933;-72
2021/06/05 01:52:04;;;;;;;;;;;;;;;;;;5048405;28;20010;-72
2021/06/05 01:54:30;;;;;;;;;;;;;;;;;;5050162;28;19924;-72
2021/06/05 01:56:56;;;;;;;;;;;;;;;;;;5050284;28;19924;-72
2021/06/05 01:59:23;;;;;;;;;;;;;;;;;;5048915;28;19925;-72
2021/06/05 02:01:49;;;;;;;;;;;;;;;;;;5050555;28;19929;-72
2021/06/05 02:04:16;;;;;;;;;;;;;;;;;;5043544;28;19933;-72
2021/06/05 02:06:42;;;;;;;;;;;;;;;;;;5036236;28;20002;-72
2021/06/05 02:09:09;;;;;;;;;;;;;;;;;;5045726;28;19929;-72
2021/06/05 02:11:35;;;;;;;;;;;;;;;;;;5040403;28;19931;-72
2021/06/05 02:14:02;;;;;;;;;;;;;;;;;;5040220;28;19937;-72
2021/06/05 02:16:29;;;;;;;;;;;;;;;;;;5043009;28;19925;-72
2021/06/05 02:18:55;;;;;;;;;;;;;;;;;;5041783;28;20062;-72
2021/06/05 02:21:22;;;;;;;;;;;;;;;;;;5050146;28;21260;-72
2021/06/05 02:23:48;;;;;;;;;;;;;;;;;;5043247;28;19955;-72
2021/06/05 02:26:15;;;;;;;;;;;;;;;;;;5046036;28;19933;-72
2021/06/05 02:28:41;;;;;;;;;;;;;;;;;;5045689;28;19925;-72
2021/06/05 02:31:08;;;;;;;;;;;;;;;;;;5039009;28;20304;-72
2021/06/05 02:33:34;;;;;;;;;;;;;;;;;;5051532;28;20308;-71
2021/06/05 02:36:01;;;;;;;;;;;;;;;;;;5050387;28;20023;-71
2021/06/05 02:38:27;;;;;;;;;;;;;;;;;;5047263;28;19925;-71
2021/06/05 02:40:53;;;;;;;;;;;;;;;;;;5038851;28;19940;-71
2021/06/05 02:43:20;;;;;;;;;;;;;;;;;;5039059;28;20321;-71
2021/06/05 02:45:46;;;;;;;;;;;;;;;;;;5041562;28;20407;-72
2021/06/05 02:48:13;;;;;;;;;;;;;;;;;;5050242;28;19978;-71
2021/06/05 02:50:39;;;;;;;;;;;;;;;;;;5049034;28;20348;-71
2021/06/05 02:53:06;;;;;;;;;;;;;;;;;;5050587;28;20426;-71
2021/06/05 02:55:32;;;;;;;;;;;;;;;;;;5036946;28;19929;-71
2021/06/05 02:57:59;;;;;;;;;;;;;;;;;;5046908;28;20297;-71
2021/06/05 03:00:25;;;;;;;;;;;;;;;;;;5048937;28;19924;-71
2021/06/05 03:02:51;;;;;;;;;;;;;;;;;;5048711;28;19925;-71
2021/06/05 03:05:18;;;;;;;;;;;;;;;;;;5062738;22;19924;-63
2021/06/05 03:07:44;;;;;;;;;;;;;;;;;;5090286;28;19931;-63
2021/06/05 03:10:11;;;;;;;;;;;;;;;;;;5089986;28;19928;-63
2021/06/05 03:12:38;;;;;;;;;;;;;;;;;;5090365;28;20379;-62
2021/06/05 03:15:04;;;;;;;;;;;;;;;;;;5086781;28;19924;-63
2021/06/05 03:17:31;;;;;;;;;;;;;;;;;;5062408;28;19939;-63
2021/06/05 03:19:57;;;;;;;;;;;;;;;;;;5073995;28;19932;-63
2021/06/05 03:22:23;;;;;;;;;;;;;;;;;;5072420;28;19929;-63
2021/06/05 03:24:51;;;;;;;;;;;;;;;;;;5072507;28;19928;-63
2021/06/05 03:27:18;;;;;;;;;;;;;;;;;;5068208;28;20349;-63
2021/06/05 03:29:44;;;;;;;;;;;;;;;;;;5069924;28;19931;-63
2021/06/05 03:32:11;;;;;;;;;;;;;;;;;;5065185;28;19924;-63
2021/06/05 03:34:37;;;;;;;;;;;;;;;;;;5066692;28;20034;-63
2021/06/05 03:37:04;;;;;;;;;;;;;;;;;;5063916;28;19932;-63
2021/06/05 03:39:30;;;;;;;;;;;;;;;;;;5065073;28;19971;-63
2021/06/05 03:41:57;;;;;;;;;;;;;;;;;;5064573;28;19933;-63
2021/06/05 03:44:23;;;;;;;;;;;;;;;;;;5073090;28;19943;-65
2021/06/05 03:46:50;;;;;;;;;;;;;;;;;;5071260;28;20292;-62
2021/06/05 03:49:16;;;;;;;;;;;;;;;;;;5068419;28;19981;-62
2021/06/05 03:51:43;;;;;;;;;;;;;;;;;;5068309;28;19935;-63
2021/06/05 03:54:09;;;;;;;;;;;;;;;;;;5067014;28;19955;-62
2021/06/05 03:56:36;;;;;;;;;;;;;;;;;;5064313;28;19928;-63
2021/06/05 03:59:02;;;;;;;;;;;;;;;;;;5067507;28;19946;-63
2021/06/05 04:01:28;;;;;;;;;;;;;;;;;;5067024;28;19931;-62
2021/06/05 04:03:55;;;;;;;;;;;;;;;;;;5065437;28;19924;-63
2021/06/05 04:06:22;;;;;;;;;;;;;;;;;;5071507;28;19931;-63
2021/06/05 04:08:48;;;;;;;;;;;;;;;;;;5068500;28;20381;-63
2021/06/05 04:11:14;;;;;;;;;;;;;;;;;;5069370;28;20034;-63
2021/06/05 04:13:41;;;;;;;;;;;;;;;;;;5068044;28;19931;-63
2021/06/05 04:16:07;;;;;;;;;;;;;;;;;;5069908;28;19932;-63
2021/06/05 04:18:34;;;;;;;;;;;;;;;;;;5072714;28;20296;-63
2021/06/05 04:21:00;;;;;;;;;;;;;;;;;;5068063;28;19940;-63
2021/06/05 04:23:27;;;;;;;;;;;;;;;;;;5069189;28;20308;-63
2021/06/05 04:25:53;;;;;;;;;;;;;;;;;;5071597;28;20339;-63
2021/06/05 04:28:20;;;;;;;;;;;;;;;;;;5067251;28;20380;-63
2021/06/05 04:30:46;;;;;;;;;;;;;;;;;;5069132;28;19924;-63
2021/06/05 04:33:12;;;;;;;;;;;;;;;;;;5066809;28;19925;-65
2021/06/05 04:35:39;;;;;;;;;;;;;;;;;;5069410;28;19977;-63
2021/06/05 04:38:05;;;;;;;;;;;;;;;;;;5065764;28;19932;-63
2021/06/05 04:40:32;;;;;;;;;;;;;;;;;;5071266;28;19925;-63
2021/06/05 04:42:58;;;;;;;;;;;;;;;;;;5069594;28;20389;-63
2021/06/05 04:45:25;;;;;;;;;;;;;;;;;;5069204;28;20388;-63
2021/06/05 04:47:51;;;;;;;;;;;;;;;;;;5062832;28;20388;-63
2021/06/05 04:50:18;;;;;;;;;;;;;;;;;;5070690;28;19942;-64
2021/06/05 04:52:44;;;;;;;;;;;;;;;;;;5066272;28;19928;-64
2021/06/05 04:55:10;;;;;;;;;;;;;;;;;;5070710;28;19925;-64
2021/06/05 04:57:37;;;;;;;;;;;;;;;;;;5068054;28;19924;-63
2021/06/05 05:00:03;;;;;;;;;;;;;;;;;;5068669;28;20304;-64
2021/06/05 05:02:30;;;;;;;;;;;;;;;;;;5070617;28;19925;-64
2021/06/05 05:04:56;;;;;;;;;;;;;;;;;;5065842;28;20345;-64
2021/06/05 05:07:23;;;;;;;;;;;;;;;;;;5066951;28;20015;-64
2021/06/05 05:09:49;;;;;;;;;;;;;;;;;;5068383;28;20333;-63
2021/06/05 05:12:16;;;;;;;;;;;;;;;;;;5071586;28;19932;-64
2021/06/05 05:14:43;;;;;;;;;;;;;;;;;;5070735;28;20329;-64
2021/06/05 05:17:09;;;;;;;;;;;;;;;;;;5067800;28;19931;-64
2021/06/05 05:19:36;;;;;;;;;;;;;;;;;;5069171;28;20388;-64
2021/06/05 05:22:02;;;;;;;;;;;;;;;;;;5066664;28;19924;-64
2021/06/05 05:24:29;;;;;;;;;;;;;;;;;;5068532;28;19925;-63
2021/06/05 05:26:55;;;;;;;;;;;;;;;;;;5064563;28;20186;-63
2021/06/05 05:29:21;;;;;;;;;;;;;;;;;;5068427;28;19974;-63
2021/06/05 05:31:48;;;;;;;;;;;;;;;;;;5067171;28;19935;-63
2021/06/05 05:34:14;;;;;;;;;;;;;;;;;;5064944;28;19924;-63
2021/06/05 05:36:41;;;;;;;;;;;;;;;;;;5065648;28;19924;-63
2021/06/05 05:39:07;;;;;;;;;;;;;;;;;;5065891;28;20006;-63
2021/06/05 05:41:34;;;;;;;;;;;;;;;;;;5062936;28;19933;-63
2021/06/05 05:44:00;;;;;;;;;;;;;;;;;;5068675;28;19931;-63
2021/06/05 05:46:28;;;;;;;;;;;;;;;;;;5066961;28;19925;-63
2021/06/05 05:48:54;;;;;;;;;;;;;;;;;;5070163;28;20304;-63
2021/06/05 05:51:21;;;;;;;;;;;;;;;;;;5070539;28;19933;-63
2021/06/05 05:53:47;;;;;;;;;;;;;;;;;;5067077;28;19967;-63
2021/06/05 05:56:14;;;;;;;;;;;;;;;;;;5065567;28;19928;-63
2021/06/05 05:58:40;;;;;;;;;;;;;;;;;;5069744;28;19924;-63
2021/06/05 06:01:07;;;;;;;;;;;;;;;;;;5064950;28;19925;-63
2021/06/05 06:03:34;;;;;;;;;;;;;;;;;;5063139;28;19933;-63
2021/06/05 06:06:00;;;;;;;;;;;;;;;;;;5065693;28;19932;-63
2021/06/05 06:08:27;;;;;;;;;;;;;;;;;;5064154;28;19924;-63
2021/06/05 06:10:53;;;;;;;;;;;;;;;;;;5069162;28;20001;-63
2021/06/05 06:13:19;;;;;;;;;;;;;;;;;;5067327;28;19951;-63
2021/06/05 06:15:46;;;;;;;;;;;;;;;;;;5066479;28;19925;-63
2021/06/05 06:18:12;;;;;;;;;;;;;;;;;;5069868;28;19947;-63
2021/06/05 06:20:42;;;;;;;;;;;;;;;;;;5065988;28;20005;-63
2021/06/05 06:23:08;;;;;;;;;;;;;;;;;;5062686;28;19967;-63
2021/06/05 06:25:39;;;;;;;;;;;;;;;;;;5069731;28;19929;-63
2021/06/05 06:28:05;;;;;;;;;;;;;;;;;;5069487;28;19924;-63
2021/06/05 06:30:35;;;;;;;;;;;;;;;;;;5064948;28;20007;-63
2021/06/05 06:33:02;;;;;;;;;;;;;;;;;;5064025;28;20430;-63
2021/06/05 06:35:28;;;;;;;;;;;;;;;;;;5057921;28;19928;-63
2021/06/05 06:37:55;;;;;;;;;;;;;;;;;;5070425;28;20338;-63
2021/06/05 06:40:21;;;;;;;;;;;;;;;;;;5068997;28;19944;-63
2021/06/05 06:42:47;;;;;;;;;;;;;;;;;;5066885;28;19924;-63
2021/06/05 06:45:14;;;;;;;;;;;;;;;;;;5068744;28;19929;-63
2021/06/05 06:47:40;;;;;;;;;;;;;;;;;;5068570;28;20315;-63
2021/06/05 06:50:07;;;;;;;;;;;;;;;;;;5069193;28;19925;-63
2021/06/05 06:52:33;;;;;;;;;;;;;;;;;;5071682;28;19936;-63
2021/06/05 06:55:00;;;;;;;;;;;;;;;;;;5071058;28;19925;-63
2021/06/05 06:57:26;;;;;;;;;;;;;;;;;;5073739;28;19940;-64
2021/06/05 06:59:53;;;;;;;;;;;;;;;;;;5068000;28;19924;-64
2021/06/05 07:02:19;;;;;;;;;;;;;;;;;;5063826;28;19925;-64
2021/06/05 07:04:46;;;;;;;;;;;;;;;;;;5071338;28;19932;-64
2021/06/05 07:07:12;;;;;;;;;;;;;;;;;;5074618;28;19925;-64
2021/06/05 07:09:38;;;;;;;;;;;;;;;;;;5070987;28;19931;-64
2021/06/05 07:12:05;;;;;;;;;;;;;;;;;;5073962;28;19924;-64
2021/06/05 07:14:31;;;;;;;;;;;;;;;;;;5073132;28;19924;-64
2021/06/05 07:17:00;;;;;;;;;;;;;;;;;;5070798;28;19944;-64
2021/06/05 07:19:26;;;;;;;;;;;;;;;;;;5071590;28;19931;-64
2021/06/05 07:21:53;;;;;;;;;;;;;;;;;;5071184;28;19925;-64
2021/06/05 07:24:19;;;;;;;;;;;;;;;;;;5072399;28;19924;-64
2021/06/05 07:26:45;;;;;;;;;;;;;;;;;;5073383;28;20299;-63
2021/06/05 07:29:12;;;;;;;;;;;;;;;;;;5070345;28;19924;-63
2021/06/05 07:31:38;;;;;;;;;;;;;;;;;;5070918;28;20303;-63
2021/06/05 07:34:05;;;;;;;;;;;;;;;;;;5070692;28;20407;-64
2021/06/05 07:36:31;;;;;;;;;;;;;;;;;;5069077;28;20272;-64
2021/06/05 07:38:58;;;;;;;;;;;;;;;;;;5072078;28;20024;-64
2021/06/05 07:41:24;;;;;;;;;;;;;;;;;;5070300;28;19924;-64
2021/06/05 07:43:51;;;;;;;;;;;;;;;;;;5066911;28;19925;-64
2021/06/05 07:46:17;;;;;;;;;;;;;;;;;;5071392;28;19925;-64
2021/06/05 07:48:44;;;;;;;;;;;;;;;;;;5068815;28;19932;-64
2021/06/05 07:51:10;;;;;;;;;;;;;;;;;;5069082;28;19943;-64
2021/06/05 07:53:37;;;;;;;;;;;;;;;;;;5069491;28;20358;-64
2021/06/05 07:56:03;;;;;;;;;;;;;;;;;;5067587;28;19957;-64
2021/06/05 07:58:29;;;;;;;;;;;;;;;;;;5068513;28;19932;-64
2021/06/05 08:00:56;;;;;;;;;;;;;;;;;;5068867;28;19937;-63
2021/06/05 08:03:22;;;;;;;;;;;;;;;;;;5070420;28;20050;-63
2021/06/05 08:05:49;;;;;;;;;;;;;;;;;;5066258;28;19928;-64
2021/06/05 08:08:15;;;;;;;;;;;;;;;;;;5070213;28;19953;-63
2021/06/05 08:10:42;;;;;;;;;;;;;;;;;;5069011;28;19925;-64
2021/06/05 08:13:08;;;;;;;;;;;;;;;;;;5070739;28;19978;-64
2021/06/05 08:15:35;;;;;;;;;;;;;;;;;;5070719;28;19932;-64
2021/06/05 08:18:01;;;;;;;;;;;;;;;;;;5070064;28;19925;-63
2021/06/05 08:20:28;;;;;;;;;;;;;;;;;;5070346;28;19931;-63
2021/06/05 08:22:56;;;;;;;;;;;;;;;;;;5064492;28;20270;-64
2021/06/05 08:25:23;;;;;;;;;;;;;;;;;;5067262;28;20400;-64
2021/06/05 08:27:50;;;;;;;;;;;;;;;;;;5066826;28;20397;-64
2021/06/05 08:30:16;;;;;;;;;;;;;;;;;;5068839;28;20304;-64
2021/06/05 08:32:43;;;;;;;;;;;;;;;;;;5069527;28;19929;-64
2021/06/05 08:35:09;;;;;;;;;;;;;;;;;;5071695;28;20223;-63
2021/06/05 08:37:36;;;;;;;;;;;;;;;;;;5071111;28;19924;-64
2021/06/05 08:40:02;;;;;;;;;;;;;;;;;;5072655;28;20003;-63
2021/06/05 08:42:29;;;;;;;;;;;;;;;;;;5074210;28;19931;-64
2021/06/05 08:44:56;;;;;;;;;;;;;;;;;;5072517;28;20322;-63
2021/06/05 08:47:22;;;;;;;;;;;;;;;;;;5071001;28;19928;-64
2021/06/05 08:49:49;;;;;;;;;;;;;;;;;;5069188;28;19931;-64
2021/06/05 08:52:15;;;;;;;;;;;;;;;;;;5069528;28;19929;-64
2021/06/05 08:54:42;;;;;;;;;;;;;;;;;;5069954;28;19934;-63
2021/06/05 08:57:08;;;;;;;;;;;;;;;;;;5071182;28;20384;-64
2021/06/05 08:59:34;;;;;;;;;;;;;;;;;;5070782;28;20403;-64
2021/06/05 09:02:01;;;;;;;;;;;;;;;;;;5070371;28;20428;-64
2021/06/05 09:04:28;;;;;;;;;;;;;;;;;;5067638;28;20303;-64
2021/06/05 09:06:55;;;;;;;;;;;;;;;;;;5069065;28;20308;-64
2021/06/05 09:09:21;;;;;;;;;;;;;;;;;;5062949;28;20396;-64
2021/06/05 09:11:48;;;;;;;;;;;;;;;;;;5063774;28;19933;-64
2021/06/05 09:14:14;;;;;;;;;;;;;;;;;;5066145;28;19924;-64
2021/06/05 09:16:41;;;;;;;;;;;;;;;;;;5070151;28;19942;-64
2021/06/05 09:19:07;;;;;;;;;;;;;;;;;;5068214;28;20277;-65
2021/06/05 09:21:34;;;;;;;;;;;;;;;;;;5066050;28;19929;-65
2021/06/05 09:24:00;;;;;;;;;;;;;;;;;;5065605;28;20080;-65
2021/06/05 09:26:27;;;;;;;;;;;;;;;;;;5063895;28;19925;-65
2021/06/05 09:28:53;;;;;;;;;;;;;;;;;;5065011;28;19979;-65
2021/06/05 09:31:20;;;;;;;;;;;;;;;;;;5067183;28;20016;-65
2021/06/05 09:33:46;;;;;;;;;;;;;;;;;;5068655;28;19928;-65
2021/06/05 09:36:13;;;;;;;;;;;;;;;;;;5064449;28;19933;-65
2021/06/05 09:38:39;;;;;;;;;;;;;;;;;;5066154;28;19960;-65
2021/06/05 09:41:06;;;;;;;;;;;;;;;;;;5065246;28;19925;-65
2021/06/05 09:43:32;;;;;;;;;;;;;;;;;;5065796;28;19928;-65
2021/06/05 09:45:59;;;;;;;;;;;;;;;;;;5069318;28;19925;-65
2021/06/05 09:48:27;;;;;;;;;;;;;;;;;;5065733;28;19936;-65
2021/06/05 09:50:53;;;;;;;;;;;;;;;;;;5064503;28;19976;-65
2021/06/05 09:53:20;;;;;;;;;;;;;;;;;;5065463;28;20341;-65
2021/06/05 09:55:46;;;;;;;;;;;;;;;;;;5066379;28;19924;-65
2021/06/05 09:58:13;;;;;;;;;;;;;;;;;;5066125;28;20487;-65
2021/06/05 10:00:39;;;;;;;;;;;;;;;;;;5065200;28;20023;-66
2021/06/05 10:03:06;;;;;;;;;;;;;;;;;;5066633;28;20042;-66
2021/06/05 10:05:32;;;;;;;;;;;;;;;;;;5065534;28;19924;-66
2021/06/05 10:08:00;;;;;;;;;;;;;;;;;;5067538;28;19932;-66
2021/06/05 10:10:26;;;;;;;;;;;;;;;;;;5068205;28;20054;-66
2021/06/05 10:12:53;;;;;;;;;;;;;;;;;;5064969;28;19928;-66
2021/06/05 10:15:19;;;;;;;;;;;;;;;;;;5064510;28;20334;-66
2021/06/05 10:17:46;;;;;;;;;;;;;;;;;;5065399;28;19931;-65
2021/06/05 10:20:13;;;;;;;;;;;;;;;;;;5065523;28;19933;-66
2021/06/05 10:22:40;;;;;;;;;;;;;;;;;;5066623;28;19948;-66
2021/06/05 10:25:06;;;;;;;;;;;;;;;;;;5063662;28;20128;-66
2021/06/05 10:27:33;;;;;;;;;;;;;;;;;;5066724;28;20059;-66
2021/06/05 10:29:59;;;;;;;;;;;;;;;;;;5063932;28;20019;-66
2021/06/05 10:32:26;;;;;;;;;;;;;;;;;;5067908;28;19925;-66
2021/06/05 10:34:52;;;;;;;;;;;;;;;;;;5063907;28;20387;-66
2021/06/05 10:37:19;;;;;;;;;;;;;;;;;;5066906;28;19928;-66
2021/06/05 10:39:45;;;;;;;;;;;;;;;;;;5068708;28;20015;-66
2021/06/05 10:42:12;;;;;;;;;;;;;;;;;;5069586;28;20011;-66
2021/06/05 10:44:38;;;;;;;;;;;;;;;;;;5070436;28;20023;-66
2021/06/05 10:47:05;;;;;;;;;;;;;;;;;;5070066;28;19924;-66
2021/06/05 10:49:31;;;;;;;;;;;;;;;;;;5070858;28;20318;-66
2021/06/05 10:51:58;;;;;;;;;;;;;;;;;;5070584;28;19934;-65
2021/06/05 10:54:24;;;;;;;;;;;;;;;;;;5070221;28;19924;-66
2021/06/05 10:56:51;;;;;;;;;;;;;;;;;;5070576;28;19925;-66
2021/06/05 10:59:17;;;;;;;;;;;;;;;;;;5070298;28;19932;-66
2021/06/05 11:01:45;;;;;;;;;;;;;;;;;;5070466;28;20028;-66
2021/06/05 11:04:11;;;;;;;;;;;;;;;;;;5067957;28;20384;-66
2021/06/05 11:06:38;;;;;;;;;;;;;;;;;;5070578;28;20030;-66
2021/06/05 11:09:04;;;;;;;;;;;;;;;;;;5069785;28;19928;-66
2021/06/05 11:11:31;;;;;;;;;;;;;;;;;;5069600;28;19928;-65
2021/06/05 11:13:57;;;;;;;;;;;;;;;;;;5069118;28;20367;-66
2021/06/05 11:16:24;;;;;;;;;;;;;;;;;;5070136;28;19978;-66
2021/06/05 11:18:50;;;;;;;;;;;;;;;;;;5070902;28;20453;-66
2021/06/05 11:21:17;;;;;;;;;;;;;;;;;;5069810;28;19930;-66
2021/06/05 11:23:43;;;;;;;;;;;;;;;;;;5070146;28;20437;-66
2021/06/05 11:26:10;;;;;;;;;;;;;;;;;;5051466;28;20004;-66
2021/06/05 11:28:36;;;;;;;;;;;;;;;;;;5069577;28;19946;-65
2021/06/05 11:31:03;;;;;;;;;;;;;;;;;;5069653;28;19944;-66
2021/06/05 11:33:29;;;;;;;;;;;;;;;;;;5067657;28;20406;-65
2021/06/05 11:35:59;;;;;;;;;;;;;;;;;;5066237;28;19993;-65
2021/06/05 11:38:26;;;;;;;;;;;;;;;;;;5066964;28;19924;-66
2021/06/05 11:40:52;;;;;;;;;;;;;;;;;;5069446;28;19969;-65
2021/06/05 11:43:19;;;;;;;;;;;;;;;;;;5070577;28;19933;-65
2021/06/05 11:45:45;;;;;;;;;;;;;;;;;;5064269;28;19982;-65
2021/06/05 11:48:12;;;;;;;;;;;;;;;;;;5069231;28;19931;-66
2021/06/05 11:50:38;;;;;;;;;;;;;;;;;;5068089;28;19931;-65
2021/06/05 11:53:05;;;;;;;;;;;;;;;;;;5068744;28;19979;-66
2021/06/05 11:55:31;;;;;;;;;;;;;;;;;;5069801;28;20001;-66
2021/06/05 11:57:58;;;;;;;;;;;;;;;;;;5069311;28;20044;-66
2021/06/05 12:00:24;;;;;;;;;;;;;;;;;;5067149;28;20385;-66
2021/06/05 12:02:51;;;;;;;;;;;;;;;;;;5065450;28;20015;-66
2021/06/05 12:05:17;;;;;;;;;;;;;;;;;;5067320;28;20420;-66
2021/06/05 12:07:44;;;;;;;;;;;;;;;;;;5067899;28;20335;-66
2021/06/05 12:10:11;;;;;;;;;;;;;;;;;;5067109;28;19931;-66
2021/06/05 12:12:37;;;;;;;;;;;;;;;;;;5065966;28;20399;-66
2021/06/05 12:15:04;;;;;;;;;;;;;;;;;;5067725;28;19951;-66
2021/06/05 12:17:31;;;;;;;;;;;;;;;;;;5065560;28;19924;-66
2021/06/05 12:19:57;;;;;;;;;;;;;;;;;;5066581;28;20007;-66
2021/06/05 12:22:24;;;;;;;;;;;;;;;;;;5067821;28;19932;-66
2021/06/05 12:24:50;;;;;;;;;;;;;;;;;;5068599;28;19924;-67
2021/06/05 12:27:17;;;;;;;;;;;;;;;;;;5066757;28;19971;-66
2021/06/05 12:29:43;;;;;;;;;;;;;;;;;;5067904;28;20018;-66
2021/06/05 12:32:10;;;;;;;;;;;;;;;;;;5069207;28;20130;-66
2021/06/05 12:34:36;;;;;;;;;;;;;;;;;;5066140;28;19932;-66
2021/06/05 12:37:03;;;;;;;;;;;;;;;;;;5065774;28;20010;-66
2021/06/05 12:39:29;;;;;;;;;;;;;;;;;;5067499;28;19932;-66
2021/06/05 12:41:55;;;;;;;;;;;;;;;;;;5065271;28;19933;-66
2021/06/05 12:44:22;;;;;;;;;;;;;;;;;;5064898;28;19955;-66
2021/06/05 12:46:48;;;;;;;;;;;;;;;;;;5066520;28;20455;-66
2021/06/05 12:49:16;;;;;;;;;;;;;;;;;;5066476;28;19981;-65
2021/06/05 12:51:42;;;;;;;;;;;;;;;;;;5065243;28;19931;-66
2021/06/05 12:54:09;;;;;;;;;;;;;;;;;;5064145;28;20057;-66
2021/06/05 12:56:35;;;;;;;;;;;;;;;;;;5065377;28;19931;-66
2021/06/05 12:59:02;;;;;;;;;;;;;;;;;;5066853;28;19946;-66
2021/06/05 13:01:28;;;;;;;;;;;;;;;;;;5065677;28;20020;-66
2021/06/05 13:03:54;;;;;;;;;;;;;;;;;;5065508;28;19978;-65
2021/06/05 13:06:21;;;;;;;;;;;;;;;;;;5064937;28;19925;-66
2021/06/05 13:08:47;;;;;;;;;;;;;;;;;;5066777;28;20392;-66
2021/06/05 13:11:14;;;;;;;;;;;;;;;;;;5066549;28;20005;-66
2021/06/05 13:13:40;;;;;;;;;;;;;;;;;;5066624;28;20035;-65
2021/06/05 13:16:07;;;;;;;;;;;;;;;;;;5064824;28;19924;-65
2021/06/05 13:18:33;;;;;;;;;;;;;;;;;;5064016;28;19928;-65
2021/06/05 13:21:00;;;;;;;;;;;;;;;;;;5065056;28;19924;-65
2021/06/05 13:23:26;;;;;;;;;;;;;;;;;;5065069;28;20292;-65
2021/06/05 13:25:53;;;;;;;;;;;;;;;;;;5065300;28;20311;-65
2021/06/05 13:28:19;;;;;;;;;;;;;;;;;;5066686;28;19924;-67
2021/06/05 13:30:46;;;;;;;;;;;;;;;;;;5064689;28;20396;-66
2021/06/05 13:33:12;;;;;;;;;;;;;;;;;;5065443;28;19975;-66
2021/06/05 13:35:39;;;;;;;;;;;;;;;;;;5068866;28;19934;-66
2021/06/05 13:38:05;;;;;;;;;;;;;;;;;;5067475;28;19925;-66
2021/06/05 13:40:32;;;;;;;;;;;;;;;;;;5063988;28;19951;-64
2021/06/05 13:42:58;;;;;;;;;;;;;;;;;;5068143;28;19928;-64
2021/06/05 13:45:25;;;;;;;;;;;;;;;;;;5064793;28;19966;-65
2021/06/05 13:47:51;;;;;;;;;;;;;;;;;;5064520;28;19925;-64
2021/06/05 13:50:18;;;;;;;;;;;;;;;;;;5066004;28;19924;-64
2021/06/05 13:52:44;;;;;;;;;;;;;;;;;;5064452;28;20278;-64
2021/06/05 13:55:11;;;;;;;;;;;;;;;;;;5069075;28;20015;-65
2021/06/05 13:57:37;;;;;;;;;;;;;;;;;;5066734;28;20012;-65
2021/06/05 14:00:04;;;;;;;;;;;;;;;;;;5060844;28;19924;-64
2021/06/05 14:02:33;;;;;;;;;;;;;;;;;;5064665;28;19930;-65
2021/06/05 14:04:59;;;;;;;;;;;;;;;;;;5065925;28;20015;-65
2021/06/05 14:07:26;;;;;;;;;;;;;;;;;;5067192;28;19933;-65
2021/06/05 14:09:52;;;;;;;;;;;;;;;;;;5064880;28;20393;-65
2021/06/05 14:12:19;;;;;;;;;;;;;;;;;;5064610;28;20028;-65
2021/06/05 14:14:45;;;;;;;;;;;;;;;;;;5064536;28;20330;-65
2021/06/05 14:17:11;;;;;;;;;;;;;;;;;;5061738;28;20028;-65
2021/06/05 14:19:38;;;;;;;;;;;;;;;;;;5063044;28;19924;-65
2021/06/05 14:22:04;;;;;;;;;;;;;;;;;;5062089;28;19924;-66
2021/06/05 14:24:31;;;;;;;;;;;;;;;;;;5065172;28;20054;-65
2021/06/05 14:26:59;;;;;;;;;;;;;;;;;;5062676;28;19932;-65
2021/06/05 14:29:25;;;;;;;;;;;;;;;;;;5064122;28;19929;-66
2021/06/05 14:31:52;;;;;;;;;;;;;;;;;;5066156;28;19924;-65
2021/06/05 14:34:18;;;;;;;;;;;;;;;;;;5066580;28;20395;-66
2021/06/05 14:36:45;;;;;;;;;;;;;;;;;;5064056;28;19943;-65
2021/06/05 14:39:11;;;;;;;;;;;;;;;;;;5065074;28;19931;-65
2021/06/05 14:41:38;;;;;;;;;;;;;;;;;;5064986;28;20386;-65
2021/06/05 14:44:04;;;;;;;;;;;;;;;;;;5063346;28;19924;-65
2021/06/05 14:46:31;;;;;;;;;;;;;;;;;;5063872;28;20019;-65
2021/06/05 14:48:57;;;;;;;;;;;;;;;;;;5062853;28;19928;-65
2021/06/05 14:51:24;;;;;;;;;;;;;;;;;;5065063;28;20007;-65
2021/06/05 14:53:50;;;;;;;;;;;;;;;;;;5064024;28;20025;-65
2021/06/05 14:56:17;;;;;;;;;;;;;;;;;;5065124;28;20381;-65
2021/06/05 14:58:43;;;;;;;;;;;;;;;;;;5063672;28;20415;-65
2021/06/05 15:01:10;;;;;;;;;;;;;;;;;;5065404;28;19931;-65
2021/06/05 15:03:36;;;;;;;;;;;;;;;;;;5062972;28;20024;-65
2021/06/05 15:06:03;;;;;;;;;;;;;;;;;;5063226;28;19976;-65
2021/06/05 15:08:29;;;;;;;;;;;;;;;;;;5062861;28;20351;-65
2021/06/05 15:10:55;;;;;;;;;;;;;;;;;;5063422;28;20007;-64
2021/06/05 15:13:22;;;;;;;;;;;;;;;;;;5068929;28;19931;-65
2021/06/05 15:15:48;;;;;;;;;;;;;;;;;;5066513;28;19925;-65
2021/06/05 15:18:15;;;;;;;;;;;;;;;;;;5068975;28;19924;-65
2021/06/05 15:20:41;;;;;;;;;;;;;;;;;;5067917;28;20403;-65
2021/06/05 15:23:08;;;;;;;;;;;;;;;;;;5068909;28;19977;-65
2021/06/05 15:25:34;;;;;;;;;;;;;;;;;;5066967;28;19925;-64
2021/06/05 15:28:01;;;;;;;;;;;;;;;;;;5068974;28;20376;-65
2021/06/05 15:30:27;;;;;;;;;;;;;;;;;;5070610;28;20309;-65
2021/06/05 15:32:54;;;;;;;;;;;;;;;;;;5072693;28;19924;-65
2021/06/05 15:35:20;;;;;;;;;;;;;;;;;;5073931;28;19931;-65
2021/06/05 15:37:47;;;;;;;;;;;;;;;;;;5073671;28;19971;-65
2021/06/05 15:40:13;;;;;;;;;;;;;;;;;;5074309;28;19935;-65
2021/06/05 15:42:40;;;;;;;;;;;;;;;;;;5074104;28;19931;-65
2021/06/05 15:45:06;;;;;;;;;;;;;;;;;;5074336;28;19924;-65
2021/06/05 15:47:33;;;;;;;;;;;;;;;;;;5073795;28;20026;-65
2021/06/05 15:49:59;;;;;;;;;;;;;;;;;;5073477;28;19925;-66
2021/06/05 15:52:26;;;;;;;;;;;;;;;;;;5072811;28;20277;-65
2021/06/05 15:54:52;;;;;;;;;;;;;;;;;;5073904;28;19981;-65
2021/06/05 15:57:19;;;;;;;;;;;;;;;;;;5073367;28;20363;-65
2021/06/05 15:59:45;;;;;;;;;;;;;;;;;;5074371;28;19925;-65
2021/06/05 16:02:12;;;;;;;;;;;;;;;;;;5073950;28;20308;-65
2021/06/05 16:04:40;;;;;;;;;;;;;;;;;;5073331;28;19930;-66
2021/06/05 16:07:06;;;;;;;;;;;;;;;;;;5077393;28;19924;-66
2021/06/05 16:09:33;;;;;;;;;;;;;;;;;;5072039;28;19929;-66
2021/06/05 16:11:59;;;;;;;;;;;;;;;;;;5072078;28;19950;-66
2021/06/05 16:14:26;;;;;;;;;;;;;;;;;;5071416;28;20419;-66
2021/06/05 16:16:52;;;;;;;;;;;;;;;;;;5072396;28;19925;-66
2021/06/05 16:19:20;;;;;;;;;;;;;;;;;;5073223;28;19924;-66
2021/06/05 16:21:47;;;;;;;;;;;;;;;;;;5072880;28;19929;-66
2021/06/05 16:24:13;;;;;;;;;;;;;;;;;;5071132;28;20304;-66
2021/06/05 16:26:40;;;;;;;;;;;;;;;;;;5071983;28;19925;-66
2021/06/05 16:29:06;;;;;;;;;;;;;;;;;;5072391;28;20412;-66
2021/06/05 16:31:33;;;;;;;;;;;;;;;;;;5072753;28;19933;-64
2021/06/05 16:33:59;;;;;;;;;;;;;;;;;;5071906;28;19924;-65
2021/06/05 16:36:26;;;;;;;;;;;;;;;;;;5070777;28;19924;-65
2021/06/05 16:38:53;;;;;;;;;;;;;;;;;;5073415;28;19935;-65
2021/06/05 16:41:19;;;;;;;;;;;;;;;;;;5072899;28;19935;-66